Time;durP1;ratioP1;P1;durP2;ratioP2;P2;SDS_P1;SDS_P2;PMS_P1;PMS_P2;Temp;Humidity;BMP_temperature;BMP_pressure;BME280_temperature;BME280_humidity;BME280_pressure;Samples;Min_cycle;Max_cycle;Signal;HPM_P1;HPM_P2
2022/06/16 00:00:16;;;;;;;9.40;5.07;;;19.60;99.90;;;;;;5049043;28;20397;-60
2022/06/16 00:02:45;;;;;;;10.77;5.27;;;19.50;99.90;;;;;;5050130;28;20386;-61
2022/06/16 00:05:12;;;;;;;11.13;5.28;;;19.40;99.90;;;;;;5049308;28;20476;-60
2022/06/16 00:07:39;;;;;;;10.30;5.35;;;19.20;99.90;;;;;;5050038;28;20389;-61
2022/06/16 00:10:06;;;;;;;9.00;5.50;;;19.10;99.90;;;;;;5048955;28;20940;-57
2022/06/16 00:12:32;;;;;;;14.15;5.90;;;19.20;99.90;;;;;;5050018;28;20542;-61
2022/06/16 00:14:58;;;;;;;8.85;5.30;;;19.20;99.90;;;;;;5031894;28;20396;-60
2022/06/16 00:17:24;;;;;;;10.70;6.00;;;19.20;99.90;;;;;;5033204;28;20492;-61
2022/06/16 00:19:49;;;;;;;10.30;5.60;;;19.10;99.90;;;;;;5049634;28;20493;-62
2022/06/16 00:22:15;;;;;;;10.60;5.40;;;19.20;99.90;;;;;;5045873;28;20811;-62
2022/06/16 00:24:41;;;;;;;10.70;5.50;;;19.20;99.90;;;;;;5028865;28;20407;-59
2022/06/16 00:27:07;;;;;;;10.85;5.90;;;19.20;99.90;;;;;;5037096;28;20443;-61
2022/06/16 00:29:34;;;;;;;9.50;5.70;;;19.20;99.90;;;;;;5049270;28;20484;-62
2022/06/16 00:32:00;;;;;;;9.90;5.20;;;19.10;99.90;;;;;;5049915;28;20388;-56
2022/06/16 00:34:26;;;;;;;11.15;5.70;;;19.20;99.90;;;;;;5048993;28;20484;-62
2022/06/16 00:36:52;;;;;;;11.80;6.30;;;19.20;99.90;;;;;;5049631;28;20448;-62
2022/06/16 00:39:18;;;;;;;12.18;5.55;;;19.20;99.90;;;;;;5048544;28;20488;-56
2022/06/16 00:41:44;;;;;;;12.07;5.40;;;19.10;99.90;;;;;;5049999;28;20382;-62
2022/06/16 00:44:30;;;;;;;10.35;5.20;;;19.10;99.90;;;;;;5047615;28;20910;-62
2022/06/16 00:46:55;;;;;;;8.15;4.90;;;19.10;99.90;;;;;;5049257;28;20791;-62
2022/06/16 00:49:21;;;;;;;10.00;5.60;;;19.10;99.90;;;;;;5048296;28;20435;-61
2022/06/16 00:51:52;;;;;;;8.70;5.13;;;19.20;99.90;;;;;;5049800;28;20377;-62
2022/06/16 00:54:32;;;;;;;10.10;5.57;;;19.20;99.90;;;;;;5048203;28;20447;-62
2022/06/16 00:57:05;;;;;;;8.88;5.40;;;19.30;99.90;;;;;;5048752;28;20977;-61
2022/06/16 00:59:31;;;;;;;9.73;5.20;;;19.20;99.90;;;;;;5049257;28;20374;-61
2022/06/16 01:01:57;;;;;;;8.67;5.87;;;19.10;99.90;;;;;;5048840;28;20387;-62
2022/06/16 01:07:11;;;;;;;10.80;6.10;;;19.30;99.90;;;;;;5047464;28;20451;-61
2022/06/16 01:09:38;;;;;;;11.63;6.30;;;19.30;99.90;;;;;;5049065;28;20386;-60
2022/06/16 01:15:45;;;;;;;11.27;5.82;;;19.10;99.90;;;;;;5034805;28;20939;-61
2022/06/16 01:18:19;;;;;;;8.70;5.60;;;19.00;99.90;;;;;;5048376;28;20416;-61
2022/06/16 01:20:48;;;;;;;10.70;5.70;;;19.00;99.90;;;;;;5049422;28;20385;-61
2022/06/16 01:23:32;;;;;;;10.60;5.70;;;18.90;99.90;;;;;;5029865;28;20447;-60
2022/06/16 01:26:26;;;;;;;9.30;5.60;;;18.80;99.90;;;;;;5048589;28;20389;-61
2022/06/16 01:29:10;;;;;;;9.60;5.40;;;18.80;99.90;;;;;;5048944;28;20401;-60
2022/06/16 01:31:42;;;;;;;9.80;5.60;;;18.80;99.90;;;;;;5048611;28;20401;-60
2022/06/16 01:34:22;;;;;;;10.77;5.68;;;18.90;99.90;;;;;;5048009;28;20421;-60
2022/06/16 01:36:54;;;;;;;11.15;5.82;;;18.90;99.90;;;;;;5048942;28;20436;-61
2022/06/16 01:39:36;;;;;;;11.67;6.60;;;18.80;99.90;;;;;;5047702;28;20401;-61
2022/06/16 01:42:14;;;;;;;10.27;6.13;;;18.80;99.90;;;;;;5048811;28;20385;-55
2022/06/16 01:44:55;;;;;;;11.35;5.80;;;18.80;99.90;;;;;;5048550;28;20397;-59
2022/06/16 01:47:23;;;;;;;10.37;6.07;;;18.80;99.90;;;;;;5048133;28;20404;-61
2022/06/16 01:49:53;;;;;;;10.32;6.10;;;18.80;99.90;;;;;;5030635;28;20417;-61
2022/06/16 01:52:36;;;;;;;9.90;5.90;;;18.70;99.90;;;;;;5047749;28;20400;-61
2022/06/16 01:55:06;;;;;;;9.07;6.00;;;18.60;99.90;;;;;;5050517;28;20432;-62
2022/06/16 01:57:40;;;;;;;10.03;6.20;;;18.60;99.90;;;;;;5052442;28;20458;-62
2022/06/16 02:00:14;;;;;;;10.35;5.70;;;19.60;99.90;;;;;;5051291;28;20405;-54
2022/06/16 02:02:42;;;;;;;10.30;5.87;;;18.60;99.90;;;;;;5052205;28;20377;-61
2022/06/16 02:05:31;;;;;;;10.60;6.10;;;18.70;99.90;;;;;;5051284;28;20981;-61
2022/06/16 02:08:25;;;;;;;9.90;5.88;;;18.70;99.90;;;;;;5052552;28;20409;-61
2022/06/16 02:11:05;;;;;;;9.80;6.43;;;18.60;99.90;;;;;;5030924;28;20399;-61
2022/06/16 02:13:38;;;;;;;12.45;7.10;;;18.50;99.90;;;;;;5035429;28;20393;-61
2022/06/16 02:16:10;;;;;;;11.60;6.63;;;18.50;99.90;;;;;;5051616;28;20870;-54
2022/06/16 02:18:39;;;;;;;10.18;6.47;;;18.40;99.90;;;;;;5051328;28;20411;-58
2022/06/16 02:21:21;;;;;;;12.68;6.97;;;18.30;99.90;;;;;;5051603;28;20503;-54
2022/06/16 02:23:47;;;;;;;11.15;6.80;;;18.40;99.90;;;;;;5051242;28;20429;-60
2022/06/16 02:26:15;;;;;;;12.20;7.40;;;18.50;99.90;;;;;;5051215;28;20404;-60
2022/06/16 02:28:47;;;;;;;13.37;6.40;;;18.40;99.90;;;;;;5050479;28;20484;-60
2022/06/16 02:31:25;;;;;;;11.70;6.85;;;18.40;99.90;;;;;;5050290;28;20421;-60
2022/06/16 02:34:11;;;;;;;10.30;6.45;;;18.30;99.90;;;;;;5031201;28;20394;-60
2022/06/16 02:36:44;;;;;;;11.52;6.30;;;18.30;99.90;;;;;;5034580;28;20521;-61
2022/06/16 02:39:29;;;;;;;12.15;6.75;;;18.30;99.90;;;;;;5050640;28;20815;-61
2022/06/16 02:42:04;;;;;;;10.77;6.88;;;18.20;99.90;;;;;;5051151;28;20432;-61
2022/06/16 02:44:37;;;;;;;10.55;6.65;;;18.10;99.90;;;;;;5051303;28;20431;-61
2022/06/16 02:47:12;;;;;;;10.60;5.70;;;18.00;99.90;;;;;;5051086;28;20782;-61
2022/06/16 02:49:56;;;;;;;11.20;6.38;;;17.90;99.90;;;;;;5051533;28;20374;-60
2022/06/16 02:52:28;;;;;;;11.57;6.70;;;17.80;99.90;;;;;;5050411;28;20405;-61
2022/06/16 02:55:00;;;;;;;12.65;7.43;;;17.80;99.90;;;;;;5051058;28;20480;-61
2022/06/16 02:57:45;;;;;;;11.93;7.13;;;17.70;99.90;;;;;;5050125;28;20558;-61
2022/06/16 03:00:17;;;;;;;11.35;7.30;;;17.60;99.90;;;;;;5050102;28;20885;-62
2022/06/16 03:02:43;;;;;;;12.20;7.40;;;17.40;1.00;;;;;;5051459;28;20381;-62
2022/06/16 03:05:12;;;;;;;13.48;7.22;;;17.30;1.00;;;;;;5049697;28;20446;-62
2022/06/16 03:07:38;;;;;;;14.20;8.40;;;17.20;1.00;;;;;;5050546;28;20862;-62
2022/06/16 03:10:05;;;;;;;13.70;8.10;;;17.10;99.90;;;;;;5050820;28;20385;-54
2022/06/16 03:12:31;;;;;;;12.60;8.10;;;17.10;99.90;;;;;;5050668;28;20386;-61
2022/06/16 03:14:56;;;;;;;16.67;8.80;;;17.10;99.90;;;;;;5050720;28;20739;-61
2022/06/16 03:17:22;;;;;;;13.73;8.93;;;17.10;99.90;;;;;;5050275;28;20401;-62
2022/06/16 03:19:51;;;;;;;13.23;8.50;;;17.10;99.90;;;;;;5051001;28;20402;-61
2022/06/16 03:22:19;;;;;;;14.50;8.68;;;17.20;99.90;;;;;;5049962;28;20424;-61
2022/06/16 03:24:45;;;;;;;13.63;8.63;;;17.30;99.90;;;;;;5050091;28;20501;-61
2022/06/16 03:27:11;;;;;;;11.93;8.07;;;17.30;99.90;;;;;;5049929;28;20469;-61
2022/06/16 03:29:37;;;;;;;15.27;8.40;;;17.40;99.90;;;;;;5050456;28;20396;-61
2022/06/16 03:32:04;;;;;;;13.20;8.40;;;17.30;99.90;;;;;;5050571;28;20798;-62
2022/06/16 03:34:30;;;;;;;13.75;7.80;;;17.30;99.90;;;;;;5049943;28;20429;-61
2022/06/16 03:36:56;;;;;;;13.30;8.00;;;17.20;99.90;;;;;;5050171;28;20494;-61
2022/06/16 03:39:22;;;;;;;12.68;8.00;;;17.20;99.90;;;;;;5049548;28;20530;-62
2022/06/16 03:41:49;;;;;;;12.60;8.00;;;17.30;99.90;;;;;;5049390;28;20397;-61
2022/06/16 03:44:15;;;;;;;13.38;8.57;;;17.30;99.90;;;;;;5049207;28;20390;-62
2022/06/16 03:46:41;;;;;;;13.75;8.40;;;17.20;99.90;;;;;;5050555;28;20389;-61
2022/06/16 03:49:07;;;;;;;12.57;7.87;;;17.20;99.90;;;;;;5050100;28;20393;-56
2022/06/16 03:51:32;;;;;;;12.20;7.80;;;17.40;99.90;;;;;;5049715;28;20385;-63
2022/06/16 03:53:58;;;;;;;13.23;7.57;;;17.40;99.90;;;;;;5049923;28;20420;-61
2022/06/16 03:56:24;;;;;;;11.10;6.93;;;17.40;1.00;;;;;;5049537;28;20400;-62
2022/06/16 03:58:52;;;;;;;11.93;6.88;;;17.40;1.00;;;;;;5049633;28;20393;-62
2022/06/16 04:01:18;;;;;;;10.70;7.00;;;17.60;1.00;;;;;;5049379;28;20481;-62
2022/06/16 04:04:02;;;;;;;12.75;6.35;;;17.60;1.00;;;;;;5049893;28;20472;-63
2022/06/16 04:06:33;;;;;;;14.55;6.90;;;17.60;1.00;;;;;;5048966;28;20389;-63
2022/06/16 04:09:00;;;;;;;11.60;6.30;;;17.90;1.00;;;;;;5049544;28;20408;-62
2022/06/16 04:11:27;;;;;;;11.30;5.90;;;18.20;1.00;;;;;;5049194;28;21041;-62
2022/06/16 04:14:02;;;;;;;9.25;5.30;;;18.50;99.90;;;;;;5049685;28;20401;-63
2022/06/16 04:16:33;;;;;;;10.67;5.80;;;18.60;99.90;;;;;;5048392;28;20423;-62
2022/06/16 04:19:00;;;;;;;13.45;6.80;;;18.60;99.90;;;;;;5049300;28;20373;-62
2022/06/16 04:21:26;;;;;;;9.20;5.50;;;18.70;99.90;;;;;;5048941;28;20827;-62
2022/06/16 04:23:51;;;;;;;11.77;6.00;;;18.90;99.90;;;;;;5048742;28;20414;-62
2022/06/16 04:26:17;;;;;;;10.25;5.47;;;19.20;99.90;;;;;;5048540;28;20405;-62
2022/06/16 04:28:43;;;;;;;9.60;5.57;;;19.20;99.90;;;;;;5049605;28;20465;-61
2022/06/16 04:31:09;;;;;;;11.93;5.60;;;19.20;99.90;;;;;;5048585;28;20818;-55
2022/06/16 04:33:35;;;;;;;9.73;5.47;;;19.30;99.90;;;;;;5048426;28;20397;-62
2022/06/16 04:36:01;;;;;;;8.70;5.30;;;19.50;99.90;;;;;;5046427;28;20455;-61
2022/06/16 04:38:27;;;;;;;11.80;5.70;;;19.50;99.90;;;;;;5047479;28;20420;-62
2022/06/16 04:40:53;;;;;;;9.23;5.67;;;19.70;99.90;;;;;;5048691;28;20389;-61
2022/06/16 04:43:19;;;;;;;11.02;5.80;;;19.80;99.90;;;;;;5047744;28;20481;-60
2022/06/16 04:45:45;;;;;;;9.30;5.30;;;20.00;99.90;;;;;;5048873;28;20389;-61
2022/06/16 04:48:11;;;;;;;10.33;5.33;;;20.20;99.90;;;;;;5047693;28;20412;-61
2022/06/16 04:50:37;;;;;;;9.35;5.30;;;20.30;99.90;;;;;;5048773;28;20436;-61
2022/06/16 04:53:03;;;;;;;10.17;5.07;;;20.30;99.90;;;;;;5048778;28;20425;-62
2022/06/16 04:55:29;;;;;;;9.90;4.90;;;20.50;99.90;;;;;;5047626;28;21020;-62
2022/06/16 04:57:55;;;;;;;9.82;5.95;;;20.90;99.90;;;;;;5048416;28;20484;-62
2022/06/16 05:00:21;;;;;;;9.00;5.30;;;21.90;99.90;;;;;;5029740;28;20932;-59
2022/06/16 05:02:47;;;;;;;10.70;5.35;;;22.90;99.90;;;;;;5048589;28;20492;-58
2022/06/16 05:05:13;;;;;;;9.85;5.30;;;23.90;99.90;;;;;;5048021;28;20377;-60
2022/06/16 05:07:39;;;;;;;8.55;4.85;;;24.50;99.90;;;;;;5048568;28;20393;-62
2022/06/16 05:10:05;;;;;;;8.75;5.05;;;24.60;99.90;;;;;;5048255;28;20488;-62
2022/06/16 05:12:31;;;;;;;9.63;5.33;;;24.30;99.90;;;;;;5047929;28;20417;-62
2022/06/16 05:14:56;;;;;;;9.07;5.63;;;23.50;99.90;;;;;;5048032;28;20754;-62
2022/06/16 05:17:22;;;;;;;9.50;5.40;;;22.70;99.90;;;;;;5029514;28;20405;-61
2022/06/16 05:19:48;;;;;;;9.05;4.90;;;22.20;99.90;;;;;;5048666;28;20476;-63
2022/06/16 05:22:13;;;;;;;9.82;5.30;;;22.00;99.90;;;;;;5047565;28;20393;-62
2022/06/16 05:24:39;;;;;;;9.15;5.40;;;21.80;99.90;;;;;;5048826;28;20572;-61
2022/06/16 05:27:05;;;;;;;10.10;4.97;;;21.60;99.90;;;;;;5048862;28;20528;-61
2022/06/16 05:29:31;;;;;;;9.65;5.38;;;21.80;99.90;;;;;;5049298;28;20401;-62
2022/06/16 05:31:58;;;;;;;10.48;6.18;;;21.90;99.90;;;;;;5052607;28;20382;-61
2022/06/16 05:34:23;;;;;;;10.45;5.80;;;22.20;99.90;;;;;;5051685;28;20409;-61
2022/06/16 05:36:49;;;;;;;11.33;5.93;;;22.40;99.90;;;;;;5052180;28;20444;-62
2022/06/16 05:39:15;;;;;;;9.47;5.13;;;22.40;99.90;;;;;;5051413;28;20417;-59
2022/06/16 05:41:41;;;;;;;10.13;5.25;;;22.50;99.90;;;;;;5052128;28;20391;-61
2022/06/16 05:44:08;;;;;;;9.65;5.57;;;22.60;99.90;;;;;;5051965;28;20424;-55
2022/06/16 05:46:35;;;;;;;10.75;5.65;;;23.80;99.90;;;;;;5051615;28;20397;-61
2022/06/16 05:49:01;;;;;;;8.48;5.68;;;24.70;99.90;;;;;;5051834;28;20400;-61
2022/06/16 05:51:26;;;;;;;9.30;5.60;;;25.60;99.90;;;;;;5051545;28;20373;-62
2022/06/16 05:53:52;;;;;;;9.50;5.30;;;25.90;99.90;;;;;;5052103;28;20475;-61
2022/06/16 05:56:18;;;;;;;9.60;5.50;;;25.70;99.90;;;;;;5033029;28;20810;-61
2022/06/16 05:58:43;;;;;;;9.70;5.37;;;25.00;99.90;;;;;;5049154;28;20400;-61
2022/06/16 06:01:11;;;;;;;10.90;5.88;;;24.30;99.90;;;;;;5050886;28;20386;-56
2022/06/16 06:03:38;;;;;;;8.93;5.47;;;24.50;99.90;;;;;;5049135;28;20494;-61
2022/06/16 06:06:04;;;;;;;14.50;6.00;;;25.30;99.90;;;;;;5047485;28;20413;-61
2022/06/16 06:16:48;;;;;;;11.68;7.30;;;24.90;99.90;;;;;;5049121;28;20408;-60
2022/06/16 06:19:24;;;;;;;9.65;6.15;;;25.40;99.90;;;;;;5050868;28;20401;-60
2022/06/16 06:22:02;;;;;;;10.30;6.63;;;25.90;99.90;;;;;;5049393;28;20473;-61
2022/06/16 06:24:37;;;;;;;12.38;7.07;;;25.70;99.90;;;;;;5048100;28;20576;-60
2022/06/16 06:27:10;;;;;;;10.15;6.45;;;26.40;99.90;;;;;;5051179;28;20409;-61
2022/06/16 06:29:36;;;;;;;9.90;6.65;;;27.50;99.90;;;;;;5051451;28;20401;-61
2022/06/16 06:32:02;;;;;;;13.52;7.68;;;29.10;99.90;;;;;;5051773;28;20389;-61
2022/06/16 06:34:29;;;;;;;10.15;7.20;;;29.50;99.90;;;;;;5050252;28;20464;-60
2022/06/16 06:36:55;;;;;;;11.45;8.30;;;30.90;99.90;;;;;;5033368;28;20416;-61
2022/06/16 06:39:22;;;;;;;11.45;8.60;;;32.40;99.90;;;;;;5033297;28;20916;-62
2022/06/16 06:41:48;;;;;;;10.98;7.80;;;31.20;99.90;;;;;;5047091;28;20433;-61
2022/06/16 06:44:14;;;;;;;12.27;8.30;;;29.90;99.90;;;;;;5048946;28;20436;-61
2022/06/16 06:46:40;;;;;;;9.98;7.10;;;29.30;99.90;;;;;;5051354;28;20389;-61
2022/06/16 06:49:06;;;;;;;10.70;7.30;;;28.50;99.90;;;;;;5050432;28;20386;-62
2022/06/16 06:51:32;;;;;;;13.30;7.70;;;27.80;99.90;;;;;;5032367;28;20393;-64
2022/06/16 06:53:58;;;;;;;13.05;7.38;;;27.60;99.90;;;;;;5050769;28;20405;-61
2022/06/16 06:56:25;;;;;;;11.80;6.80;;;27.40;99.90;;;;;;5050095;28;20467;-60
2022/06/16 06:58:52;;;;;;;10.60;7.30;;;27.10;99.90;;;;;;5032520;28;20393;-61
2022/06/16 07:01:18;;;;;;;11.85;7.70;;;27.10;99.90;;;;;;5049910;28;20472;-60
2022/06/16 07:03:43;;;;;;;10.88;7.80;;;27.00;99.90;;;;;;5050240;28;20512;-62
2022/06/16 07:06:09;;;;;;;10.80;7.43;;;26.70;99.90;;;;;;5050060;28;20890;-55
2022/06/16 07:08:35;;;;;;;11.40;7.55;;;27.20;99.90;;;;;;5050552;28;20391;-61
2022/06/16 07:11:01;;;;;;;10.27;6.75;;;27.70;99.90;;;;;;5051072;28;20392;-60
2022/06/16 07:13:26;;;;;;;11.07;7.70;;;27.10;99.90;;;;;;5046864;28;20415;-61
2022/06/16 07:15:52;;;;;;;14.07;8.10;;;27.00;99.90;;;;;;5047510;28;20814;-59
2022/06/16 07:18:18;;;;;;;11.10;7.30;;;27.20;99.90;;;;;;5049451;28;20420;-60
2022/06/16 07:20:47;;;;;;;11.87;7.20;;;27.60;99.90;;;;;;5050797;28;20386;-57
2022/06/16 07:23:13;;;;;;;11.33;7.40;;;27.80;99.90;;;;;;5049405;28;20440;-55
2022/06/16 07:25:38;;;;;;;10.43;6.80;;;29.50;99.90;;;;;;5050080;28;20398;-53
2022/06/16 07:28:04;;;;;;;10.70;7.20;;;30.30;99.90;;;;;;5048369;28;20826;-59
2022/06/16 07:30:30;;;;;;;9.90;6.43;;;30.10;99.90;;;;;;5035199;28;20992;-61
2022/06/16 07:32:56;;;;;;;9.95;7.57;;;29.50;99.90;;;;;;5063523;28;20397;-61
2022/06/16 07:35:23;;;;;;;11.35;7.18;;;28.60;99.90;;;;;;5064456;28;20558;-60
2022/06/16 07:37:49;;;;;;;10.45;6.97;;;27.70;99.90;;;;;;5042421;28;20409;-60
2022/06/16 07:40:17;;;;;;;10.57;7.13;;;27.30;99.90;;;;;;5062790;28;20396;-61
2022/06/16 07:42:44;;;;;;;12.60;7.17;;;27.10;99.90;;;;;;5053155;28;20385;-61
2022/06/16 07:45:11;;;;;;;11.00;6.90;;;27.40;99.90;;;;;;5050091;28;20391;-56
2022/06/16 07:47:37;;;;;;;11.80;7.10;;;28.30;99.90;;;;;;5055392;28;20446;-60
2022/06/16 07:50:08;;;;;;;11.30;7.50;;;28.70;99.90;;;;;;5051957;28;20425;-61
2022/06/16 07:52:37;;;;;;;11.90;6.72;;;29.00;99.90;;;;;;5062247;28;20458;-61
2022/06/16 07:55:03;;;;;;;12.00;6.65;;;29.70;99.90;;;;;;5060260;28;20400;-58
2022/06/16 07:57:31;;;;;;;11.20;7.15;;;29.50;99.90;;;;;;5054710;28;20684;-59
2022/06/16 07:59:58;;;;;;;11.20;7.25;;;29.90;99.90;;;;;;5048402;28;20816;-59
2022/06/16 08:02:24;;;;;;;12.45;7.30;;;30.90;99.90;;;;;;5050784;28;20390;-62
2022/06/16 08:04:50;;;;;;;11.00;7.50;;;31.80;99.90;;;;;;5040469;28;20467;-61
2022/06/16 08:07:16;;;;;;;11.05;7.53;;;32.30;99.90;;;;;;5056805;28;20404;-58
2022/06/16 08:09:43;;;;;;;9.55;6.75;;;31.70;99.90;;;;;;5055591;28;20405;-57
2022/06/16 08:12:09;;;;;;;9.80;6.88;;;30.50;99.90;;;;;;5059347;28;20873;-56
2022/06/16 08:14:39;;;;;;;12.40;7.07;;;29.80;99.90;;;;;;5061988;28;20471;-57
2022/06/16 08:17:07;;;;;;;11.20;6.72;;;29.10;99.90;;;;;;5058051;28;20413;-67
2022/06/16 08:19:33;;;;;;;11.90;6.88;;;28.70;99.90;;;;;;5057742;28;20447;-63
2022/06/16 08:21:59;;;;;;;11.45;7.35;;;28.30;99.90;;;;;;5049281;28;20782;-61
2022/06/16 08:24:25;;;;;;;10.75;7.43;;;27.80;99.90;;;;;;5048893;28;20453;-63
2022/06/16 08:26:51;;;;;;;14.98;7.90;;;27.30;99.90;;;;;;5048316;28;20393;-62
2022/06/16 08:29:18;;;;;;;12.13;7.28;;;27.20;99.90;;;;;;5048468;28;20389;-63
2022/06/16 08:31:44;;;;;;;12.40;6.30;;;27.90;99.90;;;;;;5049205;28;20455;-62
2022/06/16 08:34:10;;;;;;;11.90;7.40;;;28.80;99.90;;;;;;5046737;28;20417;-54
2022/06/16 08:36:36;;;;;;;12.87;7.80;;;29.70;99.90;;;;;;5048069;28;20429;-61
2022/06/16 08:39:04;;;;;;;11.77;8.18;;;30.50;99.90;;;;;;5049008;28;20443;-55
2022/06/16 08:41:49;;;;;;;10.60;7.60;;;31.20;99.90;;;;;;5048106;28;20389;-56
2022/06/16 08:44:27;;;;;;;14.85;7.65;;;32.30;99.90;;;;;;5046064;28;20483;-58
2022/06/16 08:47:11;;;;;;;11.40;7.85;;;33.50;99.90;;;;;;5046047;28;20456;-57
2022/06/16 08:49:55;;;;;;;13.73;8.45;;;33.30;99.90;;;;;;5039565;28;20463;-57
2022/06/16 08:52:50;;;;;;;13.10;8.80;;;33.80;99.90;;;;;;5047322;28;20502;-57
2022/06/16 08:55:38;;;;;;;10.93;9.30;;;34.10;99.90;;;;;;5045425;28;20413;-57
2022/06/16 08:58:24;;;;;;;15.05;9.27;;;33.70;99.90;;;;;;5046996;28;20524;-57
2022/06/16 09:01:08;;;;;;;11.23;9.45;;;33.60;99.90;;;;;;5048912;28;20472;-57
2022/06/16 09:03:55;;;;;;;11.57;9.18;;;33.70;99.90;;;;;;5046615;28;20397;-57
2022/06/16 09:06:39;;;;;;;17.17;8.77;;;32.80;99.90;;;;;;5048116;28;20369;-57
2022/06/16 09:12:48;;;;;;;14.52;7.45;;;34.80;99.90;;;;;;5045636;28;20507;-55
2022/06/16 09:15:45;;;;;;;10.75;7.20;;;36.60;99.90;;;;;;5043163;28;20461;-55
2022/06/16 09:18:40;;;;;;;10.50;7.50;;;36.50;99.90;;;;;;4968559;28;20858;-55
2022/06/16 09:21:19;;;;;;;12.85;8.50;;;37.30;99.90;;;;;;5047344;28;20531;-56
2022/06/16 09:23:54;;;;;;;11.48;7.90;;;38.20;99.90;;;;;;5047261;28;20487;-58
2022/06/16 09:26:29;;;;;;;10.73;8.30;;;37.80;99.90;;;;;;5046397;28;20416;-55
2022/06/16 09:29:13;;;;;;;12.55;10.57;;;36.80;99.90;;;;;;5046981;28;20404;-55
2022/06/16 09:31:49;;;;;;;12.10;9.80;;;35.70;99.90;;;;;;5048029;28;20373;-57
2022/06/16 09:34:33;;;;;;;10.85;9.32;;;34.60;99.90;;;;;;5046171;28;20458;-57
2022/06/16 09:37:05;;;;;;;11.50;8.00;;;33.80;99.90;;;;;;5048482;28;20446;-57
2022/06/16 09:39:37;;;;;;;12.88;9.63;;;33.50;99.90;;;;;;5046730;28;20392;-57
2022/06/16 09:42:32;;;;;;;12.20;8.40;;;33.10;99.90;;;;;;5051629;28;20381;-57
2022/06/16 09:45:13;;;;;;;11.60;7.70;;;33.80;99.90;;;;;;5048425;28;20386;-57
2022/06/16 09:48:19;;;;;;;10.13;8.65;;;33.90;99.90;;;;;;5049325;28;20389;-57
2022/06/16 09:50:55;;;;;;;11.45;8.40;;;33.90;99.90;;;;;;5029788;28;20401;-57
2022/06/16 09:53:39;;;;;;;10.13;8.95;;;34.70;99.90;;;;;;5047980;28;20411;-57
2022/06/16 09:56:33;;;;;;;13.20;8.57;;;35.20;99.90;;;;;;5048550;28;20400;-55
2022/06/16 09:59:06;;;;;;;10.23;8.00;;;36.00;99.90;;;;;;5025526;28;20421;-55
2022/06/16 10:01:38;;;;;;;12.10;8.80;;;37.10;99.90;;;;;;5046405;28;20998;-55
2022/06/16 10:04:06;;;;;;;10.95;7.75;;;36.20;99.90;;;;;;5056205;28;20488;-55
2022/06/16 10:07:02;;;;;;;10.35;9.25;;;36.60;99.90;;;;;;5050175;28;20473;-56
2022/06/16 10:09:33;;;;;;;9.90;6.25;;;37.60;99.90;;;;;;5045814;28;20393;-56
2022/06/16 10:12:22;;;;;;;10.95;6.80;;;38.10;99.90;;;;;;5050246;28;20397;-56
2022/06/16 10:14:56;;;;;;;10.40;6.70;;;37.00;99.90;;;;;;5055863;28;20422;-55
2022/06/16 10:17:23;;;;;;;9.85;8.70;;;36.70;99.90;;;;;;5049674;28;20424;-55
2022/06/16 10:19:51;;;;;;;10.60;8.30;;;36.00;99.90;;;;;;5050541;28;20484;-55
2022/06/16 10:22:23;;;;;;;9.63;7.93;;;35.50;99.90;;;;;;5045919;28;20427;-56
2022/06/16 10:25:08;;;;;;;12.75;9.10;;;35.50;99.90;;;;;;5051050;28;20511;-57
2022/06/16 10:27:42;;;;;;;12.55;8.27;;;34.40;99.90;;;;;;5050046;28;20395;-57
2022/06/16 10:30:32;;;;;;;10.40;8.30;;;34.40;99.90;;;;;;5051193;28;20449;-57
2022/06/16 10:33:19;;;;;;;10.00;8.32;;;33.50;99.90;;;;;;5051621;28;20904;-55
2022/06/16 10:35:59;;;;;;;10.90;7.13;;;32.90;99.90;;;;;;5046412;28;20413;-57
2022/06/16 10:38:34;;;;;;;10.40;7.90;;;32.70;99.90;;;;;;5048617;28;20404;-55
2022/06/16 10:41:06;;;;;;;11.85;8.18;;;32.50;99.90;;;;;;5048046;28;20417;-55
2022/06/16 10:43:39;;;;;;;11.38;7.78;;;32.70;99.90;;;;;;5048692;28;20411;-55
2022/06/16 10:46:27;;;;;;;12.60;8.03;;;32.40;99.90;;;;;;5050451;28;20809;-55
2022/06/16 10:48:55;;;;;;;10.55;7.38;;;31.50;99.90;;;;;;5050341;28;20397;-55
2022/06/16 10:51:27;;;;;;;10.15;8.10;;;31.20;99.90;;;;;;5048733;28;20703;-55
2022/06/16 10:54:19;;;;;;;10.17;7.73;;;31.10;99.90;;;;;;5047727;28;20714;-55
2022/06/16 10:56:46;;;;;;;9.82;6.88;;;30.90;99.90;;;;;;5047876;28;20424;-55
2022/06/16 10:59:19;;;;;;;11.48;7.40;;;30.70;99.90;;;;;;5046571;28;20401;-55
2022/06/16 11:02:00;;;;;;;11.30;7.80;;;30.60;99.90;;;;;;5047043;28;20416;-55
2022/06/16 11:04:35;;;;;;;9.98;7.18;;;30.70;99.90;;;;;;5047161;28;20390;-55
2022/06/16 11:07:02;;;;;;;9.18;7.22;;;31.20;99.90;;;;;;5048544;28;20611;-55
2022/06/16 11:09:31;;;;;;;10.15;7.80;;;30.60;99.90;;;;;;5049504;28;20425;-56
2022/06/16 11:12:04;;;;;;;9.75;7.30;;;30.50;99.90;;;;;;5051525;28;20485;-55
2022/06/16 11:14:52;;;;;;;10.57;7.40;;;30.70;99.90;;;;;;5049823;28;20385;-55
2022/06/16 11:17:37;;;;;;;14.73;7.05;;;30.90;99.90;;;;;;5047623;28;20401;-56
2022/06/16 11:20:26;;;;;;;10.25;7.00;;;30.70;99.90;;;;;;5046965;28;20410;-55
2022/06/16 11:22:52;;;;;;;10.20;6.93;;;30.70;99.90;;;;;;5046030;28;20409;-56
2022/06/16 11:25:31;;;;;;;9.98;7.43;;;30.70;99.90;;;;;;5047876;28;20781;-55
2022/06/16 11:27:56;;;;;;;13.32;6.15;;;31.00;99.90;;;;;;5051809;28;20401;-56
2022/06/16 11:30:49;;;;;;;10.75;7.10;;;31.50;99.90;;;;;;5049198;28;20392;-56
2022/06/16 11:36:33;;;;;;;10.45;6.15;;;31.50;99.90;;;;;;5052530;28;20392;-55
2022/06/16 11:39:06;;;;;;;9.50;6.70;;;31.50;99.90;;;;;;5043386;28;20402;-55
2022/06/16 11:41:32;;;;;;;8.70;6.40;;;31.00;99.90;;;;;;5049380;28;20687;-55
2022/06/16 11:44:09;;;;;;;9.60;7.55;;;31.10;99.90;;;;;;5050382;28;20886;-55
2022/06/16 11:47:05;;;;;;;10.15;7.30;;;30.60;99.90;;;;;;5049607;28;20394;-56
2022/06/16 11:49:48;;;;;;;10.32;7.03;;;30.20;99.90;;;;;;5042801;28;20389;-55
2022/06/16 11:52:30;;;;;;;10.50;7.50;;;30.80;99.90;;;;;;5047694;28;20412;-55
2022/06/16 11:55:18;;;;;;;11.50;7.47;;;31.20;99.90;;;;;;5049906;28;20404;-55
2022/06/16 11:57:58;;;;;;;10.73;7.38;;;30.90;99.90;;;;;;5043761;28;20436;-56
2022/06/16 12:00:37;;;;;;;9.30;6.90;;;30.90;99.90;;;;;;5045356;28;20409;-55
2022/06/16 12:03:40;;;;;;;11.57;7.00;;;30.70;99.90;;;;;;5047223;28;20424;-55
2022/06/16 12:06:41;;;;;;;9.90;6.60;;;31.20;99.90;;;;;;5052921;28;20382;-55
2022/06/16 12:09:29;;;;;;;10.30;6.75;;;31.50;99.90;;;;;;5031710;28;20442;-56
2022/06/16 12:11:59;;;;;;;11.30;6.78;;;31.10;99.90;;;;;;5050001;28;20473;-55
2022/06/16 12:14:34;;;;;;;12.25;6.93;;;30.70;99.90;;;;;;5047943;28;20397;-55
2022/06/16 12:17:15;;;;;;;10.43;6.90;;;30.70;99.90;;;;;;5047438;28;20409;-55
2022/06/16 12:19:59;;;;;;;10.50;6.40;;;31.00;99.90;;;;;;5044658;28;20440;-55
2022/06/16 12:22:50;;;;;;;8.13;6.43;;;30.80;99.90;;;;;;5047761;28;20405;-55
2022/06/16 12:25:33;;;;;;;9.65;7.20;;;31.20;99.90;;;;;;5050164;28;20487;-55
2022/06/16 12:28:02;;;;;;;10.45;7.80;;;31.50;99.90;;;;;;5048629;28;20409;-55
2022/06/16 12:30:36;;;;;;;10.67;6.40;;;31.10;99.90;;;;;;5048795;28;20539;-55
2022/06/16 12:33:34;;;;;;;11.55;7.55;;;30.90;99.90;;;;;;5040615;28;20408;-55
2022/06/16 12:36:11;;;;;;;9.50;7.47;;;30.70;99.90;;;;;;5023061;28;20432;-56
2022/06/16 12:38:47;;;;;;;11.90;7.65;;;30.60;99.90;;;;;;5045562;28;20436;-55
2022/06/16 12:41:28;;;;;;;10.80;8.10;;;30.40;99.90;;;;;;5042846;28;20412;-56
2022/06/16 12:44:28;;;;;;;9.57;7.07;;;30.60;99.90;;;;;;5048175;28;20393;-55
2022/06/16 12:47:10;;;;;;;9.20;7.30;;;31.00;99.90;;;;;;5051173;28;20414;-55
2022/06/16 12:50:08;;;;;;;9.68;7.32;;;31.20;99.90;;;;;;5047847;28;20385;-56
2022/06/16 12:52:40;;;;;;;9.70;7.45;;;31.70;99.90;;;;;;5046317;28;20411;-57
2022/06/16 12:55:06;;;;;;;9.02;6.80;;;31.40;99.90;;;;;;5049690;28;20405;-56
2022/06/16 12:57:37;;;;;;;10.70;7.30;;;30.90;99.90;;;;;;5045779;28;20428;-56
2022/06/16 13:00:13;;;;;;;9.70;7.03;;;31.40;99.90;;;;;;5043530;28;20455;-56
2022/06/16 13:03:06;;;;;;;9.03;6.93;;;31.40;99.90;;;;;;5045380;28;20898;-58
2022/06/16 13:05:33;;;;;;;10.00;6.10;;;31.80;99.90;;;;;;5051887;28;20400;-56
2022/06/16 13:08:00;;;;;;;10.02;7.18;;;31.60;99.90;;;;;;5043212;28;20491;-56
2022/06/16 13:10:26;;;;;;;9.77;7.03;;;31.40;99.90;;;;;;5044954;28;20787;-56
2022/06/16 13:12:56;;;;;;;14.93;7.90;;;31.10;99.90;;;;;;5045657;28;20524;-56
2022/06/16 13:15:43;;;;;;;8.50;6.65;;;31.10;99.90;;;;;;5033403;28;20429;-56
2022/06/16 13:18:20;;;;;;;9.93;6.60;;;31.30;99.90;;;;;;5045886;28;20416;-56
2022/06/16 13:20:53;;;;;;;10.23;7.05;;;31.30;99.90;;;;;;5045794;28;20946;-56
2022/06/16 13:23:30;;;;;;;9.23;6.40;;;31.40;99.90;;;;;;5042764;28;20484;-56
2022/06/16 13:26:25;;;;;;;10.67;6.90;;;31.50;99.90;;;;;;5030384;28;20385;-55
2022/06/16 13:29:05;;;;;;;12.23;7.33;;;31.50;99.90;;;;;;5045773;28;20389;-55